メインページ
METAR-TAF:

METAR-TAF

空港 :

ジブチ, ジブチ

ジブチ国際空港

緯度: 11-33N, 経度: 043-10E, 海抜: 49m

現時点の気象観測

当レポートは8時間54分前の15:00(UTC)に作成
の風 8kt
気温 27°C
湿度 70%
気圧 1009 hPa
視程10km以上
高度2000ftの雲は散在している

METAR: HDAM 241500Z 10008KT 9999 SCT020 27/21 Q1009

時間: 02:54 (23:54 UTC)

予報

当レポートは7時間54分前の16:00(UTC)に作成
予報は24日の 18時(UTC)から 25日の 18時(UTC)まで有効
変向風 3kt
視程10km以上
25日の 00時(UTC)から 25日の 06時(UTC)まで徐々に
の風 kt
高度2000ftの雲は散在している
25日の 06時(UTC)から 25日の 15時(UTC)まで徐々に
の風 10kt
高度2000ftの雲は散在している

TAF: HDAM 241600Z 2418/2518 VRB03KT 9999 BECMG 2500/2506 00000KT SCT020 BECMG 2506/2515 08010KT SCT020

4,000以上の空港の気象観測と天気予報(METAR報とTAF報)

利用可能な観測所は地図上に黄色い丸と赤い丸で示す。

丸の上にカーソルを重ねると観測所名を参照できる。

次にクリックすると気象観測と天気予報を参照できる。

マップの切り替え:黒色「×」印の緑ボタンをクリックして拡大、「-」印の緑ボタンをクリックして縮小、緑色の三角印をクリックして隣りの地図に切り替え


METAR-TAF: